Time;durP1;ratioP1;P1;durP2;ratioP2;P2;SDS_P1;SDS_P2;PMS_P1;PMS_P2;Temp;Humidity;BMP_temperature;BMP_pressure;BME280_temperature;BME280_humidity;BME280_pressure;Samples;Min_cycle;Max_cycle;Signal;HPM_P1;HPM_P2
2021/12/09 00:01:03;;;;;;;;;;;22.30;50.90;;;;;;5077621;28;916;-31
2021/12/09 00:03:32;;;;;;;;;;;22.30;51.00;;;;;;5077095;28;1056;-30
2021/12/09 00:05:59;;;;;;;;;;;22.30;51.00;;;;;;5077238;28;1099;-33
2021/12/09 00:08:28;;;;;;;;;;;22.20;51.10;;;;;;5077075;28;1187;-32
2021/12/09 00:10:55;;;;;;;;;;;22.20;51.10;;;;;;5076959;28;964;-32
2021/12/09 00:13:22;;;;;;;;;;;22.20;51.20;;;;;;5077579;28;1089;-33
2021/12/09 00:15:51;;;;;;;;;;;22.20;51.20;;;;;;5077301;28;1906;-31
2021/12/09 00:18:18;;;;;;;;;;;22.20;51.30;;;;;;5078075;28;1006;-34
2021/12/09 00:20:45;;;;;;;;;;;22.10;51.30;;;;;;5076538;28;996;-33
2021/12/09 00:23:13;;;;;;;;;;;22.20;51.20;;;;;;5077144;28;1822;-32
2021/12/09 00:25:39;;;;;;;;;;;22.20;51.20;;;;;;5075372;28;1031;-32
2021/12/09 00:28:06;;;;;;;;;;;22.20;51.10;;;;;;5077069;28;901;-33
2021/12/09 00:30:33;;;;;;;;;;;22.30;51.20;;;;;;5076381;28;1145;-33
2021/12/09 00:33:02;;;;;;;;;;;22.30;51.20;;;;;;5076800;28;984;-32
2021/12/09 00:35:33;;;;;;;;;;;22.30;51.20;;;;;;5077038;28;1979;-32
2021/12/09 00:38:04;;;;;;;;;;;22.20;51.10;;;;;;5076627;28;912;-33
2021/12/09 00:40:31;;;;;;;;;;;22.30;51.20;;;;;;5076453;28;1022;-32
2021/12/09 00:42:58;;;;;;;;;;;22.30;51.30;;;;;;5076482;28;944;-32
2021/12/09 00:45:25;;;;;;;;;;;22.30;51.40;;;;;;5076726;28;920;-34
2021/12/09 00:47:52;;;;;;;;;;;22.30;51.40;;;;;;5077665;28;897;-32
2021/12/09 00:50:21;;;;;;;;;;;22.30;51.40;;;;;;5076795;28;988;-32
2021/12/09 00:52:48;;;;;;;;;;;22.30;51.50;;;;;;5076537;28;992;-33
2021/12/09 00:55:16;;;;;;;;;;;22.30;51.50;;;;;;5076849;28;1163;-33
2021/12/09 00:57:43;;;;;;;;;;;22.30;51.60;;;;;;5076426;28;1972;-33
2021/12/09 01:00:12;;;;;;;;;;;22.20;51.40;;;;;;5076230;28;919;-33
2021/12/09 01:02:38;;;;;;;;;;;22.20;51.50;;;;;;5078050;28;979;-35
2021/12/09 01:05:07;;;;;;;;;;;22.20;51.60;;;;;;5078182;28;1100;-32
2021/12/09 01:07:35;;;;;;;;;;;22.20;51.60;;;;;;5077474;28;1494;-33
2021/12/09 01:10:02;;;;;;;;;;;22.20;51.60;;;;;;5077795;28;1017;-34
2021/12/09 01:12:30;;;;;;;;;;;22.20;51.50;;;;;;5077922;28;1857;-34
2021/12/09 01:14:57;;;;;;;;;;;22.20;51.50;;;;;;5077323;28;949;-32
2021/12/09 01:17:24;;;;;;;;;;;22.10;51.50;;;;;;5077620;28;1898;-33
2021/12/09 01:19:52;;;;;;;;;;;22.20;51.50;;;;;;5077470;28;979;-33
2021/12/09 01:22:19;;;;;;;;;;;22.10;51.40;;;;;;5077729;28;948;-35
2021/12/09 01:24:48;;;;;;;;;;;22.20;51.50;;;;;;5077764;28;1010;-34
2021/12/09 01:27:14;;;;;;;;;;;22.10;51.40;;;;;;5077523;28;1013;-35
2021/12/09 01:29:50;;;;;;;;;;;22.10;51.50;;;;;;5077535;28;949;-35
2021/12/09 01:32:24;;;;;;;;;;;22.10;51.60;;;;;;5077658;28;1894;-32
2021/12/09 01:34:50;;;;;;;;;;;22.10;51.50;;;;;;5077671;28;1009;-33
2021/12/09 01:37:18;;;;;;;;;;;22.10;51.50;;;;;;5077398;28;1902;-33
2021/12/09 01:39:44;;;;;;;;;;;22.00;51.50;;;;;;5077547;28;1015;-33
2021/12/09 01:42:13;;;;;;;;;;;22.10;51.50;;;;;;5077491;28;952;-33
2021/12/09 01:44:40;;;;;;;;;;;22.00;51.40;;;;;;5077032;28;1069;-34
2021/12/09 01:47:06;;;;;;;;;;;22.00;52.60;;;;;;5076724;28;1013;-34
2021/12/09 01:49:33;;;;;;;;;;;22.10;51.50;;;;;;5076998;28;1053;-32
2021/12/09 01:52:00;;;;;;;;;;;22.00;51.50;;;;;;5077337;28;929;-35
2021/12/09 01:54:27;;;;;;;;;;;22.00;51.60;;;;;;5077437;28;952;-33
2021/12/09 01:56:54;;;;;;;;;;;22.00;51.40;;;;;;5077635;28;1985;-33
2021/12/09 01:59:22;;;;;;;;;;;22.00;51.50;;;;;;5077042;28;974;-32
2021/12/09 02:01:49;;;;;;;;;;;22.00;51.40;;;;;;5077802;28;936;-34
2021/12/09 02:04:15;;;;;;;;;;;22.10;51.40;;;;;;5077280;28;1012;-33
2021/12/09 02:06:43;;;;;;;;;;;22.10;51.30;;;;;;5077108;28;1019;-33
2021/12/09 02:09:12;;;;;;;;;;;22.10;51.40;;;;;;5077118;28;1300;-34
2021/12/09 02:11:38;;;;;;;;;;;22.10;51.40;;;;;;5077503;28;1832;-33
2021/12/09 02:14:05;;;;;;;;;;;22.10;51.30;;;;;;5077038;28;1021;-34
2021/12/09 02:16:33;;;;;;;;;;;22.10;51.40;;;;;;5077124;28;1905;-34
2021/12/09 02:19:01;;;;;;;;;;;22.10;51.30;;;;;;5077518;28;1063;-31
2021/12/09 02:21:30;;;;;;;;;;;22.10;51.20;;;;;;5076768;28;1093;-34
2021/12/09 02:23:58;;;;;;;;;;;22.10;51.30;;;;;;5077072;28;1443;-32
2021/12/09 02:26:27;;;;;;;;;;;22.10;51.30;;;;;;5077114;28;953;-32
2021/12/09 02:28:54;;;;;;;;;;;22.10;51.20;;;;;;5077391;28;997;-34
2021/12/09 02:31:21;;;;;;;;;;;22.10;51.30;;;;;;5077461;28;1773;-32
2021/12/09 02:33:48;;;;;;;;;;;22.10;51.30;;;;;;5077489;28;984;-33
2021/12/09 02:36:15;;;;;;;;;;;22.10;51.40;;;;;;5077017;28;1906;-33
2021/12/09 02:38:44;;;;;;;;;;;22.10;51.30;;;;;;5077101;28;1009;-34
2021/12/09 02:41:15;;;;;;;;;;;22.10;51.40;;;;;;5077330;28;1726;-33
2021/12/09 02:43:42;;;;;;;;;;;22.10;51.30;;;;;;5076835;28;2049;-33
2021/12/09 02:46:09;;;;;;;;;;;22.10;51.40;;;;;;5077398;28;1386;-33
2021/12/09 02:48:36;;;;;;;;;;;22.10;51.40;;;;;;5077414;28;1061;-34
2021/12/09 02:51:04;;;;;;;;;;;22.00;51.40;;;;;;5076902;28;987;-33
2021/12/09 02:53:31;;;;;;;;;;;22.00;51.30;;;;;;5077012;28;1011;-32
2021/12/09 02:55:59;;;;;;;;;;;22.00;51.40;;;;;;5076843;28;1794;-33
2021/12/09 02:58:26;;;;;;;;;;;22.00;51.30;;;;;;5080035;28;931;-33
2021/12/09 03:00:54;;;;;;;;;;;22.00;51.30;;;;;;5080436;28;860;-33
2021/12/09 03:03:22;;;;;;;;;;;22.00;51.30;;;;;;5080154;28;992;-34
2021/12/09 03:05:48;;;;;;;;;;;22.00;51.40;;;;;;5080546;28;1004;-32
2021/12/09 03:08:20;;;;;;;;;;;22.00;51.30;;;;;;5080309;28;1265;-33
2021/12/09 03:10:47;;;;;;;;;;;22.00;51.30;;;;;;5080412;28;996;-33
2021/12/09 03:13:16;;;;;;;;;;;22.00;51.30;;;;;;5080041;28;999;-32
2021/12/09 03:15:42;;;;;;;;;;;22.00;51.30;;;;;;5080451;28;956;-32
2021/12/09 03:18:09;;;;;;;;;;;22.00;51.30;;;;;;5080220;28;1879;-33
2021/12/09 03:20:37;;;;;;;;;;;22.00;51.40;;;;;;5080364;28;986;-33
2021/12/09 03:23:04;;;;;;;;;;;22.00;51.40;;;;;;5080307;28;921;-32
2021/12/09 03:25:30;;;;;;;;;;;22.00;51.30;;;;;;5080316;28;936;-33
2021/12/09 03:27:57;;;;;;;;;;;21.90;51.40;;;;;;5079757;28;1170;-33
2021/12/09 03:30:25;;;;;;;;;;;22.00;51.30;;;;;;5079451;28;1102;-32
2021/12/09 03:32:52;;;;;;;;;;;22.00;51.40;;;;;;5080182;28;960;-31
2021/12/09 03:35:19;;;;;;;;;;;21.90;51.30;;;;;;5080226;28;992;-33
2021/12/09 03:40:59;;;;;;;;;;;21.90;51.40;;;;;;5078823;28;870;-33
2021/12/09 03:43:26;;;;;;;;;;;21.90;51.30;;;;;;5079391;28;1930;-34
2021/12/09 03:45:56;;;;;;;;;;;21.90;51.30;;;;;;5078927;28;956;-35
2021/12/09 03:48:22;;;;;;;;;;;22.00;51.40;;;;;;5079375;28;1067;-33
2021/12/09 03:50:49;;;;;;;;;;;21.90;51.30;;;;;;5079332;28;904;-33
2021/12/09 03:53:16;;;;;;;;;;;22.00;51.40;;;;;;5079161;28;945;-33
2021/12/09 03:55:43;;;;;;;;;;;22.00;51.30;;;;;;5079312;28;1181;-32
2021/12/09 03:58:10;;;;;;;;;;;22.00;51.30;;;;;;5078629;28;1906;-32
2021/12/09 04:00:37;;;;;;;;;;;22.00;51.30;;;;;;5079071;28;977;-32
2021/12/09 04:03:05;;;;;;;;;;;22.00;51.30;;;;;;5079503;28;1095;-34
2021/12/09 04:05:32;;;;;;;;;;;22.00;51.20;;;;;;5079308;28;956;-32
2021/12/09 04:07:59;;;;;;;;;;;22.00;51.20;;;;;;5078585;28;1107;-33
2021/12/09 04:10:26;;;;;;;;;;;22.00;51.20;;;;;;5078784;28;1073;-33
2021/12/09 04:12:53;;;;;;;;;;;22.00;51.20;;;;;;5079330;28;1051;-34
2021/12/09 04:15:19;;;;;;;;;;;22.00;51.20;;;;;;5078909;28;960;-31
2021/12/09 04:17:46;;;;;;;;;;;22.00;51.30;;;;;;5078986;28;2010;-32
2021/12/09 04:20:14;;;;;;;;;;;22.00;52.20;;;;;;5078916;28;997;-34
2021/12/09 04:22:48;;;;;;;;;;;22.00;51.20;;;;;;5079112;28;933;-33
2021/12/09 04:25:15;;;;;;;;;;;22.00;51.10;;;;;;5078872;28;972;-34
2021/12/09 04:27:41;;;;;;;;;;;22.00;51.20;;;;;;5078807;28;1063;-34
2021/12/09 04:30:09;;;;;;;;;;;22.00;51.10;;;;;;5078832;28;972;-34
2021/12/09 04:32:36;;;;;;;;;;;22.00;51.20;;;;;;5078518;28;1010;-33
2021/12/09 04:35:02;;;;;;;;;;;22.00;51.10;;;;;;5078484;28;1016;-34
2021/12/09 04:37:30;;;;;;;;;;;22.00;51.00;;;;;;5078573;28;1902;-33
2021/12/09 04:39:57;;;;;;;;;;;22.00;51.10;;;;;;5078339;28;1126;-33
2021/12/09 04:42:24;;;;;;;;;;;22.00;51.00;;;;;;5078564;28;1106;-32
2021/12/09 04:44:51;;;;;;;;;;;22.00;52.20;;;;;;5078188;28;1221;-32
2021/12/09 04:47:17;;;;;;;;;;;22.00;50.90;;;;;;5078276;28;944;-33
2021/12/09 04:49:44;;;;;;;;;;;22.00;51.00;;;;;;5078240;28;944;-32
2021/12/09 04:52:11;;;;;;;;;;;22.00;51.00;;;;;;5078099;28;1001;-34
2021/12/09 04:54:41;;;;;;;;;;;22.00;50.90;;;;;;5078091;28;1055;-33
2021/12/09 04:57:08;;;;;;;;;;;22.00;51.10;;;;;;5078136;28;1983;-36
2021/12/09 04:59:35;;;;;;;;;;;22.10;51.00;;;;;;5078006;28;1652;-34
2021/12/09 05:02:02;;;;;;;;;;;22.00;50.90;;;;;;5078026;28;1035;-34
2021/12/09 05:04:28;;;;;;;;;;;22.10;51.10;;;;;;5077823;28;997;-34
2021/12/09 05:06:55;;;;;;;;;;;22.00;50.90;;;;;;5078197;28;1048;-34
2021/12/09 05:09:23;;;;;;;;;;;22.00;51.00;;;;;;5078209;28;1020;-34
2021/12/09 05:11:52;;;;;;;;;;;22.00;51.10;;;;;;5078308;28;889;-36
2021/12/09 05:14:20;;;;;;;;;;;22.00;51.10;;;;;;5077982;28;1110;-31
2021/12/09 05:16:47;;;;;;;;;;;22.00;51.20;;;;;;5077996;28;1898;-34
2021/12/09 05:19:14;;;;;;;;;;;22.00;51.30;;;;;;5078185;28;913;-32
2021/12/09 05:21:41;;;;;;;;;;;22.10;51.20;;;;;;5078266;28;1142;-34
2021/12/09 05:24:09;;;;;;;;;;;22.20;50.90;;;;;;5077153;28;1012;-32
2021/12/09 05:26:42;;;;;;;;;;;22.20;51.00;;;;;;5077723;28;1143;-33
2021/12/09 05:29:11;;;;;;;;;;;22.10;50.90;;;;;;5077828;28;984;-31
2021/12/09 05:34:22;;;;;;;;;;;22.10;51.10;;;;;;5077698;28;651;-30
2021/12/09 05:36:49;;;;;;;;;;;22.20;51.30;;;;;;5077189;28;1970;-27
2021/12/09 05:39:17;;;;;;;;;;;22.20;51.00;;;;;;5077298;28;889;-26
2021/12/09 05:41:44;;;;;;;;;;;22.10;51.10;;;;;;5077272;28;1035;-33
2021/12/09 05:44:13;;;;;;;;;;;22.10;51.20;;;;;;5076990;28;992;-28
2021/12/09 05:46:42;;;;;;;;;;;22.00;51.30;;;;;;5077093;28;984;-29
2021/12/09 05:49:10;;;;;;;;;;;22.20;51.50;;;;;;5076534;28;957;-30
2021/12/09 05:51:37;;;;;;;;;;;22.10;51.30;;;;;;5077063;28;1038;-30
2021/12/09 05:54:04;;;;;;;;;;;22.10;51.30;;;;;;5077169;28;993;-29
2021/12/09 05:56:31;;;;;;;;;;;22.10;51.20;;;;;;5076461;28;889;-28
2021/12/09 05:58:57;;;;;;;;;;;22.10;51.10;;;;;;5076549;28;1898;-33
2021/12/09 06:01:26;;;;;;;;;;;22.00;51.20;;;;;;5076518;28;976;-35
2021/12/09 06:03:53;;;;;;;;;;;22.00;51.20;;;;;;5076076;28;1011;-34
2021/12/09 06:06:20;;;;;;;;;;;22.00;51.20;;;;;;5075425;28;1237;-33
2021/12/09 06:08:47;;;;;;;;;;;22.00;51.20;;;;;;5075918;28;1194;-34
2021/12/09 06:11:14;;;;;;;;;;;22.00;51.20;;;;;;5076074;28;1409;-32
2021/12/09 06:13:41;;;;;;;;;;;22.00;51.20;;;;;;5075500;28;917;-34
2021/12/09 06:16:09;;;;;;;;;;;22.00;51.20;;;;;;5074438;28;1414;-35
2021/12/09 06:18:37;;;;;;;;;;;22.00;51.20;;;;;;5074411;28;1977;-33
2021/12/09 06:21:04;;;;;;;;;;;22.00;51.30;;;;;;5074424;28;1228;-33
2021/12/09 06:23:31;;;;;;;;;;;21.90;51.30;;;;;;5075296;28;922;-33
2021/12/09 06:25:58;;;;;;;;;;;22.00;51.30;;;;;;5074011;28;1000;-33
2021/12/09 06:28:25;;;;;;;;;;;22.00;51.20;;;;;;5073789;28;1093;-33
2021/12/09 06:30:51;;;;;;;;;;;22.00;51.20;;;;;;5073786;28;1421;-32
2021/12/09 06:33:18;;;;;;;;;;;22.00;51.30;;;;;;5077349;28;1097;-34
2021/12/09 06:35:47;;;;;;;;;;;21.90;51.20;;;;;;5077385;28;1003;-31
2021/12/09 06:38:15;;;;;;;;;;;21.90;51.30;;;;;;5077124;28;1901;-32
2021/12/09 06:40:42;;;;;;;;;;;21.90;51.10;;;;;;5078277;28;1012;-32
2021/12/09 06:43:10;;;;;;;;;;;21.90;51.10;;;;;;5078172;28;1161;-32
2021/12/09 06:45:37;;;;;;;;;;;21.90;51.10;;;;;;5077441;28;1036;-34
2021/12/09 06:48:04;;;;;;;;;;;21.90;51.10;;;;;;5076487;28;1054;-33
2021/12/09 06:50:31;;;;;;;;;;;21.90;51.20;;;;;;5078046;28;1018;-33
2021/12/09 06:52:59;;;;;;;;;;;21.90;51.40;;;;;;5078209;28;1138;-34
2021/12/09 06:55:26;;;;;;;;;;;21.90;51.30;;;;;;5077573;28;1466;-34
2021/12/09 06:57:52;;;;;;;;;;;21.90;51.10;;;;;;5077459;28;2000;-30
2021/12/09 07:00:22;;;;;;;;;;;21.90;51.20;;;;;;5077911;28;1390;-35
2021/12/09 07:02:49;;;;;;;;;;;21.90;51.00;;;;;;5078134;28;980;-31
2021/12/09 07:05:17;;;;;;;;;;;21.90;51.10;;;;;;5077986;28;1008;-33
2021/12/09 07:07:44;;;;;;;;;;;21.90;51.20;;;;;;5079145;28;1036;-32
2021/12/09 07:10:13;;;;;;;;;;;21.90;51.00;;;;;;5079010;28;1057;-31
2021/12/09 07:12:40;;;;;;;;;;;21.90;51.10;;;;;;5079240;28;1014;-32
2021/12/09 07:15:08;;;;;;;;;;;21.80;51.00;;;;;;5078763;28;869;-33
2021/12/09 07:17:36;;;;;;;;;;;21.90;51.10;;;;;;5078272;28;1971;-31
2021/12/09 07:20:04;;;;;;;;;;;21.80;51.10;;;;;;5078511;28;952;-30
2021/12/09 07:22:30;;;;;;;;;;;21.80;51.10;;;;;;5078020;28;1016;-29
2021/12/09 07:24:57;;;;;;;;;;;21.80;50.90;;;;;;5078293;28;1795;-30
2021/12/09 07:27:26;;;;;;;;;;;21.80;51.10;;;;;;5077901;28;1005;-32
2021/12/09 07:29:53;;;;;;;;;;;21.80;51.00;;;;;;5078405;28;1757;-30
2021/12/09 07:32:20;;;;;;;;;;;21.80;51.00;;;;;;5078167;28;989;-32
2021/12/09 07:34:47;;;;;;;;;;;21.80;51.00;;;;;;5078006;28;967;-32
2021/12/09 07:37:14;;;;;;;;;;;21.80;51.00;;;;;;5078679;28;1048;-35
2021/12/09 07:39:41;;;;;;;;;;;21.80;51.00;;;;;;5078287;28;1979;-35
2021/12/09 07:42:09;;;;;;;;;;;21.80;50.90;;;;;;5077814;28;949;-31
2021/12/09 07:44:38;;;;;;;;;;;21.80;50.90;;;;;;5077221;28;1189;-32
2021/12/09 07:47:04;;;;;;;;;;;21.70;50.90;;;;;;5076904;28;924;-32
2021/12/09 07:49:31;;;;;;;;;;;21.70;51.00;;;;;;5078506;28;991;-30
2021/12/09 07:51:58;;;;;;;;;;;21.70;51.00;;;;;;5077586;28;928;-31
2021/12/09 07:54:25;;;;;;;;;;;21.70;50.80;;;;;;5077915;28;1373;-31
2021/12/09 07:56:52;;;;;;;;;;;21.80;51.00;;;;;;5077265;28;1022;-33
2021/12/09 07:59:19;;;;;;;;;;;21.70;51.00;;;;;;5077327;28;1902;-31
2021/12/09 08:01:47;;;;;;;;;;;21.70;50.90;;;;;;5078083;28;980;-32
2021/12/09 08:04:14;;;;;;;;;;;21.70;51.00;;;;;;5078088;28;952;-34
2021/12/09 08:06:41;;;;;;;;;;;21.70;50.80;;;;;;5077118;28;944;-30
2021/12/09 08:09:09;;;;;;;;;;;21.70;50.90;;;;;;5077182;28;1193;-34
2021/12/09 08:11:37;;;;;;;;;;;21.70;50.90;;;;;;5077309;28;1888;-32
2021/12/09 08:14:05;;;;;;;;;;;21.70;51.00;;;;;;5077689;28;1135;-33
2021/12/09 08:16:33;;;;;;;;;;;21.60;51.00;;;;;;5077208;28;1390;-32
2021/12/09 08:19:02;;;;;;;;;;;21.60;51.00;;;;;;5076534;28;2243;-30
2021/12/09 08:21:31;;;;;;;;;;;21.60;50.90;;;;;;5077341;28;1318;-35
2021/12/09 08:23:58;;;;;;;;;;;21.60;51.00;;;;;;5076787;28;933;-34
2021/12/09 08:26:25;;;;;;;;;;;21.60;50.90;;;;;;5076577;28;1130;-32
2021/12/09 08:28:52;;;;;;;;;;;21.60;51.00;;;;;;5076486;28;1021;-32
2021/12/09 08:31:19;;;;;;;;;;;21.60;51.10;;;;;;5076568;28;1001;-31
2021/12/09 08:33:46;;;;;;;;;;;21.60;51.20;;;;;;5077168;28;937;-33
2021/12/09 08:36:14;;;;;;;;;;;21.60;51.10;;;;;;5077531;28;1153;-32
2021/12/09 08:38:41;;;;;;;;;;;21.60;51.00;;;;;;5076677;28;1980;-33
2021/12/09 08:41:08;;;;;;;;;;;21.50;51.00;;;;;;5076848;28;945;-32
2021/12/09 08:43:35;;;;;;;;;;;21.50;51.10;;;;;;5076523;28;1341;-31
2021/12/09 08:46:02;;;;;;;;;;;21.50;50.90;;;;;;5076027;28;995;-31
2021/12/09 08:48:29;;;;;;;;;;;21.50;50.90;;;;;;5076957;28;1003;-31
2021/12/09 08:50:55;;;;;;;;;;;21.60;51.10;;;;;;5077360;28;1143;-30
2021/12/09 08:53:24;;;;;;;;;;;21.50;50.90;;;;;;5076885;28;908;-34
2021/12/09 08:55:52;;;;;;;;;;;21.50;50.90;;;;;;5075620;28;987;-33
2021/12/09 08:58:18;;;;;;;;;;;21.50;51.00;;;;;;5075424;28;1902;-31
2021/12/09 09:00:45;;;;;;;;;;;21.50;51.00;;;;;;5072432;28;1551;-31
2021/12/09 09:03:12;;;;;;;;;;;21.50;51.00;;;;;;5069042;28;929;-33
2021/12/09 09:05:40;;;;;;;;;;;21.50;51.00;;;;;;5076698;28;1121;-32
2021/12/09 09:08:07;;;;;;;;;;;21.50;50.90;;;;;;5075651;28;1336;-31
2021/12/09 09:10:39;;;;;;;;;;;21.50;51.00;;;;;;5075346;28;998;-33
2021/12/09 09:13:06;;;;;;;;;;;21.50;51.00;;;;;;5076042;28;940;-33
2021/12/09 09:15:35;;;;;;;;;;;21.50;51.00;;;;;;5076572;28;1156;-32
2021/12/09 09:18:02;;;;;;;;;;;21.50;51.00;;;;;;5079293;28;2433;-31
2021/12/09 09:20:30;;;;;;;;;;;21.50;51.00;;;;;;5087066;28;979;-32
2021/12/09 09:22:58;;;;;;;;;;;21.60;51.00;;;;;;5080661;28;1016;-34
2021/12/09 09:25:29;;;;;;;;;;;21.60;50.90;;;;;;5095966;28;976;-30
2021/12/09 09:27:58;;;;;;;;;;;21.60;50.70;;;;;;5096439;28;1383;-32
2021/12/09 09:30:27;;;;;;;;;;;21.70;50.70;;;;;;5096381;28;1039;-30
2021/12/09 09:32:55;;;;;;;;;;;21.60;50.60;;;;;;5096313;28;1036;-34
2021/12/09 09:35:21;;;;;;;;;;;21.70;50.80;;;;;;5095413;28;908;-33
2021/12/09 09:37:48;;;;;;;;;;;21.70;50.70;;;;;;5096892;28;1080;-32
2021/12/09 09:40:17;;;;;;;;;;;21.70;50.90;;;;;;5096144;28;1981;-34
2021/12/09 09:42:59;;;;;;;;;;;21.70;51.00;;;;;;5096008;28;947;-31
2021/12/09 09:45:27;;;;;;;;;;;21.70;51.00;;;;;;5095268;28;987;-31
2021/12/09 09:47:54;;;;;;;;;;;21.70;51.20;;;;;;5094922;28;1546;-32
2021/12/09 09:50:22;;;;;;;;;;;21.70;51.20;;;;;;5096248;28;1015;-31
2021/12/09 09:52:49;;;;;;;;;;;21.70;51.20;;;;;;5095767;28;993;-33
2021/12/09 09:55:20;;;;;;;;;;;21.70;51.10;;;;;;5095522;28;1023;-33
2021/12/09 09:57:48;;;;;;;;;;;21.60;51.20;;;;;;5096192;28;995;-32
2021/12/09 10:00:16;;;;;;;;;;;21.70;51.50;;;;;;5095438;28;1906;-31
2021/12/09 10:02:51;;;;;;;;;;;21.60;51.10;;;;;;5095035;28;1115;-34
2021/12/09 10:05:22;;;;;;;;;;;21.70;51.20;;;;;;5094873;28;1061;-33
2021/12/09 10:07:49;;;;;;;;;;;21.80;51.30;;;;;;5098148;28;1035;-32
2021/12/09 10:10:16;;;;;;;;;;;21.90;51.10;;;;;;5099637;28;1014;-30
2021/12/09 10:12:54;;;;;;;;;;;21.80;51.00;;;;;;5098335;28;1984;-31
2021/12/09 10:15:32;;;;;;;;;;;21.80;51.00;;;;;;5099120;28;1036;-32
2021/12/09 10:18:00;;;;;;;;;;;21.70;51.10;;;;;;5098820;28;1362;-34
2021/12/09 10:20:41;;;;;;;;;;;21.70;51.00;;;;;;5099463;28;1909;-32
2021/12/09 10:23:21;;;;;;;;;;;21.70;51.20;;;;;;5099922;28;923;-31
2021/12/09 10:25:53;;;;;;;;;;;21.80;51.10;;;;;;5095703;28;1423;-32
2021/12/09 10:28:25;;;;;;;;;;;21.90;51.00;;;;;;5092859;28;1449;-31
2021/12/09 10:31:09;;;;;;;;;;;21.90;51.10;;;;;;5092555;28;959;-30
2021/12/09 10:33:57;;;;;;;;;;;21.90;50.90;;;;;;5096247;28;1875;-32
2021/12/09 10:39:20;;;;;;;;;;;21.90;50.80;;;;;;5112840;27;1196;-35
2021/12/09 10:41:47;;;;;;;;;;;22.00;51.20;;;;;;5112016;28;1661;-34
2021/12/09 10:44:14;;;;;;;;;;;22.00;50.70;;;;;;5112426;28;1007;-34
2021/12/09 10:46:50;;;;;;;;;;;22.20;50.80;;;;;;5112651;28;1012;-34
2021/12/09 10:49:18;;;;;;;;;;;22.20;50.60;;;;;;5113240;28;806;-32
2021/12/09 10:51:55;;;;;;;;;;;22.40;50.50;;;;;;5107603;28;977;-37
2021/12/09 10:54:37;;;;;;;;;;;22.50;50.30;;;;;;5111620;28;1313;-36
2021/12/09 10:57:22;;;;;;;;;;;22.50;50.30;;;;;;5112873;28;1909;-38
2021/12/09 10:59:50;;;;;;;;;;;22.60;49.90;;;;;;5112787;28;1008;-39
2021/12/09 11:02:17;;;;;;;;;;;22.60;49.80;;;;;;5107156;28;932;-35
2021/12/09 11:04:56;;;;;;;;;;;22.60;49.50;;;;;;5113913;28;1028;-41
2021/12/09 11:07:27;;;;;;;;;;;22.70;49.50;;;;;;5113450;28;998;-38
2021/12/09 11:10:09;;;;;;;;;;;22.80;49.20;;;;;;5113346;28;1152;-38
2021/12/09 11:12:37;;;;;;;;;;;23.00;48.90;;;;;;5108368;28;1952;-38
2021/12/09 11:15:05;;;;;;;;;;;23.00;48.60;;;;;;5113664;28;964;-39
2021/12/09 11:17:37;;;;;;;;;;;23.10;48.50;;;;;;5113186;28;1902;-37
2021/12/09 11:20:04;;;;;;;;;;;23.10;48.40;;;;;;5113221;28;1007;-37
2021/12/09 11:22:33;;;;;;;;;;;23.30;48.50;;;;;;5106517;28;932;-38
2021/12/09 11:25:03;;;;;;;;;;;23.30;48.40;;;;;;5113323;28;987;-39
2021/12/09 11:27:31;;;;;;;;;;;23.40;48.40;;;;;;5113516;28;996;-38
2021/12/09 11:30:10;;;;;;;;;;;23.40;48.50;;;;;;5113683;28;940;-36
2021/12/09 11:32:42;;;;;;;;;;;23.30;48.20;;;;;;5106292;28;1006;-41
2021/12/09 11:35:15;;;;;;;;;;;23.30;48.30;;;;;;5113355;28;987;-40
2021/12/09 11:37:47;;;;;;;;;;;23.30;48.30;;;;;;5113390;28;1906;-41
2021/12/09 11:40:19;;;;;;;;;;;23.30;48.50;;;;;;5113090;28;941;-41
2021/12/09 11:42:50;;;;;;;;;;;23.30;48.40;;;;;;5104709;28;1031;-37
2021/12/09 11:45:19;;;;;;;;;;;23.30;48.50;;;;;;5111044;28;1574;-36
2021/12/09 11:47:49;;;;;;;;;;;23.20;48.60;;;;;;5112329;28;1328;-33
2021/12/09 11:50:17;;;;;;;;;;;23.30;48.70;;;;;;5099199;28;995;-33
2021/12/09 11:52:45;;;;;;;;;;;23.20;48.60;;;;;;5093665;28;1042;-31
2021/12/09 11:55:14;;;;;;;;;;;23.20;49.20;;;;;;5096876;28;995;-32
2021/12/09 11:57:44;;;;;;;;;;;23.20;48.60;;;;;;5097143;28;1978;-31
2021/12/09 12:11:48;;;;;;;;;;;23.10;49.20;;;;;;5095231;28;1029;-35
2021/12/09 12:14:34;;;;;;;;;;;23.10;49.20;;;;;;5097679;28;1004;-33
2021/12/09 12:20:01;;;;;;;;;;;23.20;48.80;;;;;;5097956;28;1352;-34
2021/12/09 12:22:44;;;;;;;;;;;23.20;48.90;;;;;;5095726;28;1028;-33
2021/12/09 12:25:56;;;;;;;;;;;23.30;48.70;;;;;;5097832;28;948;-32
2021/12/09 12:28:30;;;;;;;;;;;23.50;48.80;;;;;;5096742;28;940;-33
2021/12/09 12:31:26;;;;;;;;;;;23.50;48.80;;;;;;5095093;28;993;-31
2021/12/09 12:40:05;;;;;;;;;;;23.50;48.60;;;;;;5098782;28;740;-31
2021/12/09 12:42:45;;;;;;;;;;;23.40;48.70;;;;;;5091417;28;1452;-31
2021/12/09 12:45:22;;;;;;;;;;;23.30;48.70;;;;;;5097410;28;1007;-32
2021/12/09 12:47:55;;;;;;;;;;;23.30;48.70;;;;;;5097188;28;873;-32
2021/12/09 12:50:23;;;;;;;;;;;23.30;48.90;;;;;;5097137;28;992;-31
2021/12/09 12:52:53;;;;;;;;;;;23.20;49.00;;;;;;5093281;28;940;-32
2021/12/09 12:55:25;;;;;;;;;;;23.30;49.00;;;;;;5096399;28;1001;-33
2021/12/09 12:57:53;;;;;;;;;;;23.30;48.90;;;;;;5096731;28;1893;-32
2021/12/09 13:00:23;;;;;;;;;;;23.20;49.10;;;;;;5095485;28;968;-32
2021/12/09 13:03:18;;;;;;;;;;;23.20;49.40;;;;;;5091818;28;2001;-34
2021/12/09 13:05:58;;;;;;;;;;;23.20;49.50;;;;;;5095715;28;1032;-35
2021/12/09 13:08:54;;;;;;;;;;;23.10;49.50;;;;;;5095898;28;984;-36
2021/12/09 13:11:37;;;;;;;;;;;23.10;49.70;;;;;;5095163;28;995;-34
2021/12/09 13:14:07;;;;;;;;;;;23.00;49.60;;;;;;5094076;28;1592;-32
2021/12/09 13:16:43;;;;;;;;;;;23.00;49.70;;;;;;5097779;28;1561;-34
2021/12/09 13:19:31;;;;;;;;;;;23.00;49.70;;;;;;5097030;28;1909;-34
2021/12/09 13:21:59;;;;;;;;;;;23.00;49.90;;;;;;5091911;28;1707;-37
2021/12/09 13:24:34;;;;;;;;;;;23.00;50.00;;;;;;5097003;28;850;-36
2021/12/09 13:27:18;;;;;;;;;;;22.90;49.70;;;;;;5094608;28;1418;-33
2021/12/09 13:29:55;;;;;;;;;;;22.90;49.80;;;;;;5095935;28;1015;-29
2021/12/09 13:32:54;;;;;;;;;;;23.00;49.90;;;;;;5092455;28;915;-34
2021/12/09 13:35:31;;;;;;;;;;;23.00;49.80;;;;;;5096191;28;928;-32
2021/12/09 13:38:14;;;;;;;;;;;23.00;49.70;;;;;;5096036;28;1910;-31
2021/12/09 13:46:23;;;;;;;;;;;23.00;49.80;;;;;;5096474;28;877;-33
2021/12/09 13:49:02;;;;;;;;;;;23.00;51.10;;;;;;5096632;28;893;-33
2021/12/09 13:51:56;;;;;;;;;;;23.00;49.90;;;;;;5092816;28;915;-32
2021/12/09 13:54:24;;;;;;;;;;;23.00;50.00;;;;;;5095502;28;915;-35
2021/12/09 13:56:57;;;;;;;;;;;23.00;50.00;;;;;;5095357;28;1033;-37
2021/12/09 13:59:26;;;;;;;;;;;23.00;50.10;;;;;;5095662;28;1906;-31
2021/12/09 14:01:54;;;;;;;;;;;23.00;50.10;;;;;;5090341;28;1058;-32
2021/12/09 14:04:22;;;;;;;;;;;23.00;50.10;;;;;;5095870;28;1028;-32
2021/12/09 14:06:57;;;;;;;;;;;23.00;50.20;;;;;;5094798;28;1063;-31
2021/12/09 14:09:26;;;;;;;;;;;23.10;50.20;;;;;;5095235;28;874;-32
2021/12/09 14:11:53;;;;;;;;;;;23.10;50.00;;;;;;5092283;28;1988;-37
2021/12/09 14:14:38;;;;;;;;;;;23.10;51.10;;;;;;5093412;28;912;-32
2021/12/09 14:17:09;;;;;;;;;;;23.10;50.10;;;;;;5095163;28;992;-31
2021/12/09 14:22:25;;;;;;;;;;;23.10;50.20;;;;;;5091517;28;1010;-32
2021/12/09 14:24:52;;;;;;;;;;;23.00;50.10;;;;;;5094140;28;1016;-33
2021/12/09 14:27:20;;;;;;;;;;;23.00;50.30;;;;;;5095360;28;964;-33
2021/12/09 14:29:49;;;;;;;;;;;23.00;50.50;;;;;;5096324;28;973;-37
2021/12/09 14:32:17;;;;;;;;;;;23.00;50.50;;;;;;5091951;28;1016;-36
2021/12/09 14:34:45;;;;;;;;;;;23.00;50.50;;;;;;5095459;28;960;-36
2021/12/09 14:37:13;;;;;;;;;;;22.90;50.60;;;;;;5095260;28;1276;-36
2021/12/09 14:39:41;;;;;;;;;;;23.00;50.70;;;;;;5096092;28;1901;-31
2021/12/09 14:42:10;;;;;;;;;;;23.00;51.20;;;;;;5092436;28;992;-31
2021/12/09 14:44:37;;;;;;;;;;;23.10;50.80;;;;;;5094208;28;1000;-34
2021/12/09 14:47:13;;;;;;;;;;;23.10;50.40;;;;;;5095200;28;999;-38
2021/12/09 14:49:46;;;;;;;;;;;23.10;50.30;;;;;;5095654;28;1065;-31
2021/12/09 14:52:25;;;;;;;;;;;23.10;50.30;;;;;;5090608;28;1594;-31
2021/12/09 14:54:52;;;;;;;;;;;23.10;50.60;;;;;;5095252;28;1017;-31
2021/12/09 14:57:19;;;;;;;;;;;23.10;50.70;;;;;;5096305;28;1020;-29
2021/12/09 14:59:50;;;;;;;;;;;23.00;50.50;;;;;;5095696;28;1906;-31
2021/12/09 15:02:28;;;;;;;;;;;22.90;50.60;;;;;;5088659;28;1000;-31
2021/12/09 15:05:02;;;;;;;;;;;22.90;50.60;;;;;;5095555;28;1482;-29
2021/12/09 15:07:34;;;;;;;;;;;22.90;50.70;;;;;;5096717;28;1000;-31
2021/12/09 15:10:02;;;;;;;;;;;22.80;50.80;;;;;;5095477;28;1051;-33
2021/12/09 15:12:31;;;;;;;;;;;22.80;50.80;;;;;;5089708;28;1013;-44
2021/12/09 15:15:01;;;;;;;;;;;22.80;51.00;;;;;;5094742;28;1215;-32
2021/12/09 15:17:29;;;;;;;;;;;22.90;51.10;;;;;;5095566;28;1365;-31
2021/12/09 15:20:01;;;;;;;;;;;23.00;50.80;;;;;;5096047;28;1980;-36
2021/12/09 15:22:38;;;;;;;;;;;22.90;50.80;;;;;;5090997;28;959;-30
2021/12/09 15:25:06;;;;;;;;;;;23.00;50.80;;;;;;5098139;28;976;-32
2021/12/09 15:27:53;;;;;;;;;;;22.90;50.80;;;;;;5098339;28;1013;-30